Time;durP1;ratioP1;P1;durP2;ratioP2;P2;SDS_P1;SDS_P2;PMS_P1;PMS_P2;Temp;Humidity;BMP_temperature;BMP_pressure;BME280_temperature;BME280_humidity;BME280_pressure;Samples;Min_cycle;Max_cycle;Signal;HPM_P1;HPM_P2
2023/06/21 00:01:13;;;;;;;31.17;17.15;;;;;;;29.85;50.54;101238.28;5080325;28;20024;-66
2023/06/21 00:03:38;;;;;;;31.90;17.45;;;;;;;29.80;49.23;101235.97;5053586;28;20027;-66
2023/06/21 00:06:05;;;;;;;26.13;17.00;;;;;;;29.88;49.53;101228.13;5070063;28;20143;-66
2023/06/21 00:08:32;;;;;;;27.40;16.17;;;;;;;28.02;54.60;101236.00;5086142;28;20052;-66
2023/06/21 00:10:58;;;;;;;27.45;16.60;;;;;;;29.16;52.63;101224.22;5069226;28;20073;-67
2023/06/21 00:13:23;;;;;;;26.73;15.05;;;;;;;29.78;49.91;101227.16;5057126;28;20032;-67
2023/06/21 00:15:50;;;;;;;25.35;16.25;;;;;;;29.18;52.07;101227.66;5071132;28;20571;-67
2023/06/21 00:18:15;;;;;;;25.80;15.80;;;;;;;29.03;51.66;101231.59;5088693;28;20028;-67
2023/06/21 00:20:41;;;;;;;26.75;16.02;;;;;;;27.87;56.37;101232.66;5069099;28;20142;-67
2023/06/21 00:23:08;;;;;;;29.75;17.35;;;;;;;28.60;54.72;101233.22;5056760;28;20081;-67
2023/06/21 00:25:34;;;;;;;29.63;17.60;;;;;;;28.33;56.05;101242.53;5067394;28;20032;-67
2023/06/21 00:27:59;;;;;;;25.33;15.85;;;;;;;28.43;54.58;101245.34;5056359;28;20032;-67
2023/06/21 00:30:25;;;;;;;25.48;15.65;;;;;;;28.66;54.17;101258.78;5051771;28;20392;-67
2023/06/21 00:32:50;;;;;;;28.50;16.52;;;;;;;28.65;53.33;101259.78;5063272;28;20111;-67
2023/06/21 00:35:15;;;;;;;30.27;16.88;;;;;;;29.79;49.78;101267.44;5057452;28;20131;-68
2023/06/21 00:37:41;;;;;;;28.95;16.17;;;;;;;28.57;52.94;101276.50;5069387;28;20028;-67
2023/06/21 00:40:12;;;;;;;28.88;16.52;;;;;;;27.45;57.90;101284.13;5069203;28;20020;-67
2023/06/21 00:42:37;;;;;;;26.52;15.55;;;;;;;27.88;57.27;101280.88;5071904;28;20487;-67
2023/06/21 00:45:04;;;;;;;25.30;14.45;;;;;;;28.06;57.22;101275.09;5071350;28;20078;-67
2023/06/21 00:47:30;;;;;;;28.80;16.35;;;;;;;27.25;57.70;101283.72;5085964;28;20077;-67
2023/06/21 00:49:57;;;;;;;28.85;16.08;;;;;;;28.25;55.75;101278.03;5077297;28;20439;-67
2023/06/21 00:52:23;;;;;;;31.52;17.85;;;;;;;27.50;58.75;101281.94;5076092;28;20107;-67
2023/06/21 00:54:48;;;;;;;32.45;18.67;;;;;;;26.96;61.53;101293.91;5053194;28;20449;-67
2023/06/21 00:57:14;;;;;;;39.03;19.35;;;;;;;27.61;61.09;101299.06;5062096;28;20035;-66
2023/06/21 00:59:39;;;;;;;35.58;20.60;;;;;;;28.32;56.05;101288.34;5071833;28;20029;-67
2023/06/21 01:02:05;;;;;;;43.03;21.88;;;;;;;27.25;61.04;101294.44;5064546;28;20031;-67
2023/06/21 01:04:33;;;;;;;42.28;21.55;;;;;;;28.39;56.27;101297.63;5061107;28;20028;-67
2023/06/21 01:07:29;;;;;;;41.50;20.70;;;;;;;28.26;56.69;101292.31;5077744;28;20028;-67
2023/06/21 01:10:09;;;;;;;40.28;20.70;;;;;;;27.65;59.50;101311.28;5053358;28;20359;-66
2023/06/21 01:13:04;;;;;;;38.95;20.65;;;;;;;28.25;56.54;101307.59;5071011;28;20032;-67
2023/06/21 01:15:38;;;;;;;42.75;21.20;;;;;;;27.90;58.36;101313.84;5059174;28;20484;-68
2023/06/21 01:18:06;;;;;;;45.00;22.60;;;;;;;28.29;56.21;101315.44;5051192;28;20031;-66
2023/06/21 01:20:37;;;;;;;44.22;22.70;;;;;;;27.98;56.39;101321.31;5051183;28;20396;-67
2023/06/21 01:23:23;;;;;;;46.50;22.50;;;;;;;28.58;55.98;101313.16;5065646;28;20027;-67
2023/06/21 01:26:15;;;;;;;46.35;23.45;;;;;;;28.17;57.21;101315.41;5060323;28;20032;-67
2023/06/21 01:29:08;;;;;;;43.35;23.23;;;;;;;28.55;55.02;101308.88;5071664;28;20037;-67
2023/06/21 01:31:39;;;;;;;46.70;22.90;;;;;;;28.92;53.78;101305.97;5061355;28;20032;-67
2023/06/21 01:34:05;;;;;;;48.42;25.42;;;;;;;28.17;55.72;101307.34;5065079;28;20503;-67
2023/06/21 01:36:31;;;;;;;52.65;24.98;;;;;;;28.67;54.43;101314.28;5061430;28;20024;-67
2023/06/21 01:38:57;;;;;;;52.20;24.83;;;;;;;27.97;55.28;101313.38;5079391;28;20020;-67
2023/06/21 01:41:23;;;;;;;52.65;26.10;;;;;;;29.18;53.02;101310.19;5071626;28;20483;-67
2023/06/21 01:43:49;;;;;;;51.10;25.58;;;;;;;29.93;49.61;101305.84;5067716;28;20495;-67
2023/06/21 01:46:16;;;;;;;51.53;25.30;;;;;;;29.25;50.84;101314.13;5082830;28;20381;-67
2023/06/21 01:48:42;;;;;;;51.30;24.50;;;;;;;28.05;55.78;101316.34;5063691;28;20028;-67
2023/06/21 01:51:09;;;;;;;48.58;22.85;;;;;;;29.59;50.91;101316.72;5058868;28;20082;-67
2023/06/21 01:53:36;;;;;;;49.90;24.58;;;;;;;29.49;50.35;101324.72;5065497;28;20438;-67
2023/06/21 01:56:05;;;;;;;48.78;23.35;;;;;;;29.28;52.01;101317.44;5051174;28;20412;-67
2023/06/21 01:58:31;;;;;;;46.60;23.80;;;;;;;29.41;50.44;101311.03;5056353;28;20040;-67
2023/06/21 02:00:59;;;;;;;46.88;23.05;;;;;;;30.27;47.71;101317.28;5062812;28;20021;-67
2023/06/21 02:03:27;;;;;;;49.17;24.20;;;;;;;30.18;48.53;101320.75;5077174;28;20100;-68
2023/06/21 02:05:54;;;;;;;55.40;25.75;;;;;;;30.32;47.72;101332.19;5076345;28;20130;-67
2023/06/21 02:08:20;;;;;;;51.85;24.10;;;;;;;30.04;47.74;101337.28;5077373;28;20069;-67
2023/06/21 02:10:46;;;;;;;46.80;24.35;;;;;;;28.84;52.15;101338.00;5065726;28;20487;-67
2023/06/21 02:13:13;;;;;;;45.78;23.30;;;;;;;29.37;49.98;101336.50;5066610;28;20027;-67
2023/06/21 02:15:41;;;;;;;44.90;21.75;;;;;;;28.91;51.48;101339.22;5066283;28;20399;-67
2023/06/21 02:18:07;;;;;;;43.65;21.42;;;;;;;29.49;49.43;101340.88;5057637;28;20063;-68
2023/06/21 02:20:32;;;;;;;47.00;24.08;;;;;;;28.13;53.08;101346.19;5053908;28;20028;-67
2023/06/21 02:22:58;;;;;;;41.75;21.45;;;;;;;28.93;51.08;101336.41;5051416;28;20032;-67
2023/06/21 02:25:24;;;;;;;44.25;22.88;;;;;;;28.06;54.06;101350.31;5069010;28;20025;-68
2023/06/21 02:27:49;;;;;;;44.33;22.52;;;;;;;29.60;49.79;101340.00;5065437;28;20039;-67
2023/06/21 02:30:14;;;;;;;44.22;21.85;;;;;;;29.99;48.78;101343.03;5063579;28;20035;-68
2023/06/21 02:32:40;;;;;;;48.78;22.17;;;;;;;30.54;46.25;101342.88;5061121;28;20491;-67
2023/06/21 02:35:06;;;;;;;43.28;21.73;;;;;;;29.48;48.40;101351.78;5058413;28;20637;-68
2023/06/21 02:37:32;;;;;;;41.58;21.63;;;;;;;29.61;49.03;101361.41;5054605;28;20024;-67
2023/06/21 02:39:58;;;;;;;44.03;21.75;;;;;;;29.19;50.12;101365.75;5050973;28;20038;-67
2023/06/21 02:42:26;;;;;;;40.42;20.75;;;;;;;29.68;48.53;101355.53;5053277;28;20046;-67
2023/06/21 02:44:51;;;;;;;42.95;21.48;;;;;;;29.48;48.11;101358.00;5063009;28;20032;-67
2023/06/21 02:47:18;;;;;;;35.70;19.67;;;;;;;29.83;47.15;101359.63;5047653;28;20024;-68
2023/06/21 02:49:43;;;;;;;40.15;19.73;;;;;;;29.35;49.52;101362.72;5050762;28;20028;-67
2023/06/21 02:52:08;;;;;;;36.17;18.75;;;;;;;29.83;47.99;101356.94;5060919;28;20029;-66
2023/06/21 02:54:37;;;;;;;41.55;21.48;;;;;;;29.88;47.48;101359.25;5049793;28;20027;-67
2023/06/21 02:57:03;;;;;;;39.47;19.40;;;;;;;30.36;45.69;101366.84;5051814;28;20057;-67
2023/06/21 02:59:29;;;;;;;38.42;20.55;;;;;;;30.65;45.66;101365.34;5031436;28;20048;-67
2023/06/21 03:01:55;;;;;;;37.92;19.23;;;;;;;29.70;48.04;101369.69;5032188;28;20175;-67
2023/06/21 03:04:21;;;;;;;32.75;17.63;;;;;;;29.98;47.00;101367.41;5039791;28;20483;-68
2023/06/21 03:06:46;;;;;;;34.33;17.40;;;;;;;29.99;47.54;101374.53;5050479;28;20063;-67
2023/06/21 03:09:12;;;;;;;33.85;19.38;;;;;;;30.17;46.52;101377.50;5041481;28;20028;-67
2023/06/21 03:11:37;;;;;;;32.47;17.58;;;;;;;30.21;46.71;101377.13;5036905;28;20021;-68
2023/06/21 03:14:03;;;;;;;35.97;19.70;;;;;;;30.40;46.21;101378.22;5069688;28;20033;-67
2023/06/21 03:16:30;;;;;;;32.72;17.08;;;;;;;30.24;46.17;101376.84;5051994;28;20024;-68
2023/06/21 03:18:55;;;;;;;31.95;19.35;;;;;;;30.06;46.98;101386.47;5066141;28;20056;-67
2023/06/21 03:21:22;;;;;;;36.00;17.50;;;;;;;30.37;46.05;101395.53;5059072;28;20492;-68
2023/06/21 03:23:48;;;;;;;33.53;17.58;;;;;;;29.83;46.06;101389.25;5032903;28;20027;-67
2023/06/21 03:26:13;;;;;;;32.17;17.08;;;;;;;29.47;47.35;101396.69;5051970;28;20104;-67
2023/06/21 03:28:39;;;;;;;31.42;15.00;;;;;;;30.24;46.33;101406.50;5062716;28;20036;-67
2023/06/21 03:31:04;;;;;;;25.50;15.40;;;;;;;29.90;46.95;101420.09;5067268;28;20662;-67
2023/06/21 03:33:29;;;;;;;25.92;13.60;;;;;;;30.52;45.67;101431.13;5033741;28;20029;-67
2023/06/21 03:35:55;;;;;;;24.20;14.85;;;;;;;29.55;47.78;101421.16;5038277;28;20027;-67
2023/06/21 03:38:20;;;;;;;24.17;14.13;;;;;;;30.01;46.49;101426.47;5051459;28;20024;-67
2023/06/21 03:40:45;;;;;;;25.35;13.40;;;;;;;30.21;45.22;101428.34;5062212;28;20059;-67
2023/06/21 03:43:11;;;;;;;23.02;13.23;;;;;;;30.22;46.18;101430.03;5061956;28;20021;-67
2023/06/21 03:45:36;;;;;;;26.77;12.85;;;;;;;30.59;45.02;101436.84;5051280;28;20081;-67
2023/06/21 03:48:05;;;;;;;20.58;11.18;;;;;;;29.99;46.51;101447.28;5065307;28;20029;-67
2023/06/21 03:50:31;;;;;;;18.80;10.38;;;;;;;29.65;46.20;101444.63;5051668;28;20089;-67
2023/06/21 03:52:56;;;;;;;17.58;10.02;;;;;;;29.75;45.95;101442.91;5038532;28;20030;-67
2023/06/21 03:55:22;;;;;;;17.58;9.73;;;;;;;29.81;46.29;101438.84;5064972;28;20052;-66
2023/06/21 03:57:47;;;;;;;18.35;9.10;;;;;;;29.77;46.13;101446.31;5058280;28;20045;-67
2023/06/21 04:00:13;;;;;;;15.07;8.02;;;;;;;29.37;46.19;101444.19;5054458;28;20483;-67
2023/06/21 04:02:39;;;;;;;13.20;8.07;;;;;;;29.44;46.26;101445.38;5069537;28;20062;-67
2023/06/21 04:05:05;;;;;;;11.88;7.03;;;;;;;29.59;46.26;101446.88;5079102;28;20044;-67
2023/06/21 04:07:31;;;;;;;10.30;6.97;;;;;;;30.12;45.72;101453.34;5072618;28;20484;-67
2023/06/21 04:09:56;;;;;;;9.43;5.40;;;;;;;29.44;44.94;101466.94;5060603;28;20036;-67
2023/06/21 04:12:22;;;;;;;6.50;4.32;;;;;;;29.81;45.58;101458.56;5084698;28;20028;-67
2023/06/21 04:14:47;;;;;;;6.35;4.13;;;;;;;29.80;45.85;101456.84;5069209;28;20035;-67
2023/06/21 04:17:13;;;;;;;9.23;4.80;;;;;;;29.83;46.29;101459.28;5066064;28;20040;-67
2023/06/21 04:19:38;;;;;;;8.13;4.72;;;;;;;29.97;46.04;101451.94;5060114;28;20023;-65
2023/06/21 04:22:04;;;;;;;7.32;5.03;;;;;;;30.22;45.31;101439.97;5075466;28;20370;-67
2023/06/21 04:24:30;;;;;;;10.13;5.65;;;;;;;30.09;44.85;101443.69;5076400;28;20679;-67
2023/06/21 04:26:58;;;;;;;7.93;4.80;;;;;;;30.43;44.45;101450.75;5071187;28;20128;-67
2023/06/21 04:29:23;;;;;;;5.90;4.50;;;;;;;30.45;44.77;101448.84;5062339;28;20077;-67
2023/06/21 04:31:51;;;;;;;9.85;5.15;;;;;;;30.22;45.13;101456.97;5050889;28;20122;-67
2023/06/21 04:34:17;;;;;;;9.02;4.75;;;;;;;30.45;44.43;101463.16;5058456;28;20115;-67
2023/06/21 04:36:47;;;;;;;8.35;5.28;;;;;;;30.32;45.57;101462.44;5087174;28;20115;-67
2023/06/21 04:39:16;;;;;;;7.35;5.15;;;;;;;30.37;45.70;101470.16;5084795;28;20020;-67
2023/06/21 04:41:41;;;;;;;10.93;6.00;;;;;;;31.04;43.93;101474.38;5061618;28;20036;-67
2023/06/21 04:44:07;;;;;;;11.18;6.53;;;;;;;30.81;44.84;101479.03;5058000;28;20031;-67
2023/06/21 04:46:36;;;;;;;10.38;6.25;;;;;;;30.60;44.26;101477.19;5064702;28;20194;-67
2023/06/21 04:49:04;;;;;;;11.25;4.68;;;;;;;29.81;45.55;101482.78;5062237;28;20032;-67
2023/06/21 04:51:32;;;;;;;9.02;4.00;;;;;;;30.86;44.02;101482.19;5067173;28;20028;-67
2023/06/21 04:54:00;;;;;;;6.85;4.20;;;;;;;30.38;44.83;101493.47;5073962;28;20040;-67
2023/06/21 04:56:29;;;;;;;6.63;3.33;;;;;;;30.71;44.18;101488.91;5060637;28;20048;-66
2023/06/21 04:58:55;;;;;;;4.15;3.20;;;;;;;30.25;44.15;101483.69;5050020;28;20513;-67
2023/06/21 05:01:20;;;;;;;5.43;3.47;;;;;;;29.91;45.54;101486.50;5052451;28;20430;-67
2023/06/21 05:03:48;;;;;;;7.75;3.38;;;;;;;29.17;46.73;101495.06;5059283;28;20744;-67
2023/06/21 05:06:14;;;;;;;4.50;2.40;;;;;;;30.43;44.27;101497.47;5065819;28;20047;-67
2023/06/21 05:08:40;;;;;;;4.75;3.20;;;;;;;29.66;43.91;101498.38;5072316;28;20032;-67
2023/06/21 05:11:06;;;;;;;4.25;2.53;;;;;;;30.08;44.54;101498.56;5084258;28;20028;-67
2023/06/21 05:13:32;;;;;;;4.75;2.78;;;;;;;29.52;44.94;101502.16;5071801;28;20077;-67
2023/06/21 05:15:57;;;;;;;3.88;2.53;;;;;;;28.15;46.80;101505.47;5075163;28;20036;-67
2023/06/21 05:18:23;;;;;;;4.38;2.38;;;;;;;29.77;45.44;101498.38;5082068;28;20032;-67
2023/06/21 05:20:48;;;;;;;8.15;2.80;;;;;;;30.51;43.92;101501.38;5057076;28;20024;-67
2023/06/21 05:23:14;;;;;;;4.65;2.75;;;;;;;30.74;43.16;101504.81;5066539;28;20020;-67
2023/06/21 05:25:39;;;;;;;4.90;2.50;;;;;;;30.85;42.53;101512.84;5078632;28;20039;-67
2023/06/21 05:28:04;;;;;;;3.63;2.42;;;;;;;29.92;44.43;101509.78;5056168;28;20050;-67
2023/06/21 05:30:30;;;;;;;3.55;2.53;;;;;;;30.16;44.34;101511.41;5066458;28;20028;-67
2023/06/21 05:32:55;;;;;;;4.00;2.30;;;;;;;29.85;44.90;101519.31;5068057;28;20024;-67
2023/06/21 05:35:20;;;;;;;3.30;2.72;;;;;;;30.43;44.21;101520.88;5059035;28;20028;-67
2023/06/21 05:37:46;;;;;;;4.18;2.80;;;;;;;30.47;43.54;101521.50;5058647;28;20036;-67
2023/06/21 05:40:12;;;;;;;5.57;3.00;;;;;;;30.18;44.52;101520.22;5065199;28;20034;-67
2023/06/21 05:42:37;;;;;;;3.97;2.67;;;;;;;30.60;43.74;101536.53;5062443;28;20164;-67
2023/06/21 05:45:05;;;;;;;3.92;2.53;;;;;;;30.57;43.07;101531.38;5072629;28;20036;-67
2023/06/21 05:47:30;;;;;;;3.55;2.67;;;;;;;30.33;43.50;101525.34;5067199;28;20016;-66
2023/06/21 05:49:56;;;;;;;5.05;2.80;;;;;;;29.97;44.94;101527.41;5082865;28;20043;-67
2023/06/21 05:52:21;;;;;;;7.20;2.67;;;;;;;29.73;44.78;101525.66;5052398;28;20031;-66
2023/06/21 05:54:46;;;;;;;3.70;2.38;;;;;;;29.95;44.40;101525.69;5057655;28;20399;-66
2023/06/21 05:57:12;;;;;;;4.60;2.63;;;;;;;30.12;44.13;101521.59;5055700;28;20478;-66
2023/06/21 05:59:37;;;;;;;2.85;2.35;;;;;;;29.14;46.09;101530.28;5064615;28;20029;-66
2023/06/21 06:02:04;;;;;;;7.13;2.20;;;;;;;31.01;42.84;101538.50;5060627;28;20103;-66
2023/06/21 06:04:30;;;;;;;5.97;2.47;;;;;;;31.55;41.70;101532.00;5080264;28;20081;-67
2023/06/21 06:06:55;;;;;;;6.95;2.08;;;;;;;31.36;41.92;101548.97;5054444;28;20028;-67
2023/06/21 06:09:21;;;;;;;4.35;2.38;;;;;;;32.08;40.72;101549.84;5071415;28;20472;-67
2023/06/21 06:11:46;;;;;;;3.28;2.28;;;;;;;31.07;42.67;101552.38;5059608;28;20043;-66
2023/06/21 06:14:11;;;;;;;3.85;1.80;;;;;;;32.77;38.92;101556.19;5050279;28;20035;-66
2023/06/21 06:16:38;;;;;;;4.95;1.70;;;;;;;34.57;36.30;101560.56;5074108;28;20028;-67
2023/06/21 06:19:03;;;;;;;3.00;2.00;;;;;;;35.06;34.58;101560.13;5055635;28;20039;-66
2023/06/21 06:21:28;;;;;;;2.97;1.10;;;;;;;33.88;33.88;101561.03;5053854;28;20423;-67
2023/06/21 06:23:54;;;;;;;3.00;0.90;;;;;;;33.16;34.85;101579.63;5053768;28;20535;-66
2023/06/21 06:26:26;;;;;;;3.15;1.70;;;;;;;34.77;33.89;101575.66;5068550;28;20033;-66
2023/06/21 06:28:53;;;;;;;3.85;1.42;;;;;;;35.36;32.31;101577.00;5058770;28;20032;-66
2023/06/21 06:31:21;;;;;;;3.78;1.80;;;;;;;36.29;32.21;101579.75;5054507;28;20074;-66
2023/06/21 06:33:47;;;;;;;3.47;1.50;;;;;;;37.40;30.03;101582.16;5049658;28;20500;-66
2023/06/21 06:36:12;;;;;;;3.80;1.08;;;;;;;38.37;28.59;101575.59;5054020;28;20048;-64
2023/06/21 06:38:38;;;;;;;2.63;1.30;;;;;;;36.18;30.63;101582.81;5053813;28;20070;-64
2023/06/21 06:41:04;;;;;;;3.15;1.20;;;;;;;36.43;31.38;101580.16;5053449;28;20024;-65
2023/06/21 06:43:30;;;;;;;4.45;1.88;;;;;;;37.52;31.08;101588.94;5068543;28;20028;-65
2023/06/21 06:45:55;;;;;;;2.60;1.30;;;;;;;38.50;27.79;101584.03;5088782;28;20372;-65
2023/06/21 06:48:20;;;;;;;1.90;1.08;;;;;;;38.19;29.04;101593.91;5063650;28;20020;-65
2023/06/21 06:50:46;;;;;;;2.25;1.40;;;;;;;37.84;29.28;101600.78;5064911;28;20107;-65
2023/06/21 06:53:11;;;;;;;3.50;1.40;;;;;;;36.98;28.90;101611.34;5057546;28;20040;-65
2023/06/21 06:55:36;;;;;;;1.23;1.10;;;;;;;37.39;29.72;101614.03;5080416;28;20040;-65
2023/06/21 06:58:02;;;;;;;2.55;1.02;;;;;;;38.32;28.47;101612.47;5091922;28;20024;-66
2023/06/21 07:00:27;;;;;;;3.40;1.42;;;;;;;39.27;28.63;101618.56;5060716;28;20032;-66
2023/06/21 07:02:57;;;;;;;1.63;0.98;;;;;;;39.24;27.90;101616.22;5060024;28;20081;-66
2023/06/21 07:05:23;;;;;;;5.80;1.42;;;;;;;37.67;28.00;101625.38;5054715;28;20106;-64
2023/06/21 07:07:50;;;;;;;3.88;0.95;;;;;;;39.08;26.39;101619.09;5052940;28;20020;-67
2023/06/21 07:10:15;;;;;;;2.60;1.13;;;;;;;38.92;26.04;101626.38;5069247;28;21927;-66
2023/06/21 07:12:41;;;;;;;2.25;1.30;;;;;;;38.17;26.52;101631.47;5053621;28;20059;-66
2023/06/21 07:15:07;;;;;;;1.42;0.85;;;;;;;36.84;27.71;101626.50;5053607;28;20487;-66
2023/06/21 07:17:32;;;;;;;1.35;0.80;;;;;;;38.33;26.84;101633.28;5055803;28;20043;-66
2023/06/21 07:19:57;;;;;;;1.35;1.10;;;;;;;37.48;26.58;101636.66;5056083;28;20476;-66
2023/06/21 07:22:23;;;;;;;1.83;0.80;;;;;;;36.05;29.63;101642.25;5058726;28;20119;-66
2023/06/21 07:24:48;;;;;;;2.13;0.77;;;;;;;37.10;29.19;101636.38;5062741;28;20119;-66
2023/06/21 07:27:13;;;;;;;1.38;0.93;;;;;;;36.58;30.14;101638.34;5060416;28;20332;-66
2023/06/21 07:29:39;;;;;;;2.55;0.90;;;;;;;38.91;27.09;101638.38;5044115;28;20036;-66
2023/06/21 07:32:05;;;;;;;2.22;1.10;;;;;;;37.51;29.70;101637.16;5066689;28;20074;-66
2023/06/21 07:34:30;;;;;;;2.45;1.02;;;;;;;39.69;25.40;101638.97;5069956;28;20428;-66
2023/06/21 07:36:56;;;;;;;2.10;1.05;;;;;;;39.97;25.88;101635.53;5063340;28;20028;-67
2023/06/21 07:39:21;;;;;;;2.92;0.95;;;;;;;40.96;26.23;101638.72;5073988;28;20028;-66
2023/06/21 07:41:47;;;;;;;2.53;1.13;;;;;;;41.43;25.89;101639.13;5057011;28;20056;-66
2023/06/21 07:44:12;;;;;;;0.95;0.90;;;;;;;39.21;25.26;101630.22;5053481;28;20059;-67
2023/06/21 07:46:38;;;;;;;2.08;0.80;;;;;;;41.48;22.00;101644.81;5064548;28;20126;-66
2023/06/21 07:49:03;;;;;;;1.75;0.90;;;;;;;40.53;22.67;101650.53;5064297;28;20024;-67
2023/06/21 07:51:28;;;;;;;1.02;0.70;;;;;;;39.39;24.12;101648.16;5071968;28;20031;-67
2023/06/21 07:53:54;;;;;;;2.10;0.82;;;;;;;38.92;25.80;101642.78;5071734;28;20405;-66
2023/06/21 07:56:19;;;;;;;2.35;1.02;;;;;;;37.07;26.22;101651.19;5070427;28;20048;-66
2023/06/21 07:58:46;;;;;;;3.45;1.00;;;;;;;36.98;26.57;101650.31;5051171;28;20020;-65
2023/06/21 08:01:12;;;;;;;2.05;0.90;;;;;;;40.15;25.41;101656.22;5052907;28;20025;-65
2023/06/21 08:03:37;;;;;;;1.60;1.05;;;;;;;41.08;24.92;101663.72;5051820;28;20035;-65
2023/06/21 08:06:03;;;;;;;1.10;1.00;;;;;;;39.05;24.45;101658.56;5052608;28;20086;-66
2023/06/21 08:08:28;;;;;;;0.93;0.75;;;;;;;37.99;25.00;101659.03;5052949;28;20029;-65
2023/06/21 08:10:56;;;;;;;2.85;1.15;;;;;;;38.68;25.13;101658.31;5050975;28;20032;-65
2023/06/21 08:13:22;;;;;;;3.03;0.82;;;;;;;39.30;23.52;101661.91;5052362;28;20036;-65
2023/06/21 08:15:49;;;;;;;1.48;0.93;;;;;;;39.27;24.53;101655.97;5077821;28;20035;-66
2023/06/21 08:18:14;;;;;;;1.95;0.95;;;;;;;39.76;23.78;101665.56;5072037;28;20557;-65
2023/06/21 08:20:40;;;;;;;2.28;0.98;;;;;;;38.42;24.75;101676.91;5080588;28;20031;-64
2023/06/21 08:23:07;;;;;;;3.78;1.23;;;;;;;38.42;24.84;101682.38;5058678;28;20023;-65
2023/06/21 08:25:32;;;;;;;0.82;0.75;;;;;;;38.49;25.56;101680.63;5090486;28;20031;-65
2023/06/21 08:27:58;;;;;;;3.45;1.08;;;;;;;38.96;24.92;101670.59;5110569;28;20425;-66
2023/06/21 08:30:24;;;;;;;1.48;0.70;;;;;;;38.87;25.38;101669.81;5077496;28;20067;-64
2023/06/21 08:32:50;;;;;;;2.72;1.10;;;;;;;40.83;23.83;101672.31;5083223;28;20399;-64
2023/06/21 08:35:15;;;;;;;1.17;1.00;;;;;;;39.59;24.67;101686.75;5080277;28;20028;-64
2023/06/21 08:37:53;;;;;;;2.05;1.08;;;;;;;40.97;23.27;101685.16;5053561;28;20035;-65
2023/06/21 08:40:24;;;;;;;1.42;0.90;;;;;;;41.31;23.64;101682.66;5069482;28;20029;-65
2023/06/21 08:42:50;;;;;;;3.75;0.98;;;;;;;43.34;21.96;101679.38;5064119;28;20115;-64
2023/06/21 08:45:15;;;;;;;1.05;0.95;;;;;;;41.03;23.10;101687.09;5060177;28;20031;-64
2023/06/21 08:47:41;;;;;;;1.38;0.90;;;;;;;43.24;21.43;101689.97;5073664;28;20032;-64
2023/06/21 08:50:08;;;;;;;2.08;1.10;;;;;;;42.59;20.82;101693.25;5064546;28;20039;-65
2023/06/21 08:52:36;;;;;;;2.92;1.08;;;;;;;42.48;22.63;101691.94;5069940;28;20106;-65
2023/06/21 08:55:08;;;;;;;1.35;0.90;;;;;;;41.79;20.59;101692.94;5068844;28;20032;-64
2023/06/21 08:57:39;;;;;;;2.78;1.30;;;;;;;40.82;21.12;101698.03;5054474;28;20026;-64
2023/06/21 09:00:10;;;;;;;1.80;0.98;;;;;;;41.06;21.50;101698.72;5055593;28;20027;-65
2023/06/21 09:03:09;;;;;;;1.25;1.10;;;;;;;40.95;20.46;101703.66;5054155;28;20123;-64
2023/06/21 09:05:55;;;;;;;2.78;1.20;;;;;;;39.87;22.78;101717.06;5071897;28;20031;-64
2023/06/21 09:08:21;;;;;;;2.13;1.45;;;;;;;42.26;21.04;101720.63;5070443;28;20502;-65
2023/06/21 09:10:50;;;;;;;3.33;1.35;;;;;;;40.53;21.38;101711.66;5087392;28;20040;-64
2023/06/21 09:13:17;;;;;;;3.03;1.13;;;;;;;39.64;23.13;101707.06;5070493;28;20533;-65
2023/06/21 09:15:45;;;;;;;1.55;1.05;;;;;;;40.23;22.20;101702.63;5070063;28;20078;-65
2023/06/21 09:18:10;;;;;;;2.17;1.20;;;;;;;41.10;22.86;101703.59;5090320;28;20031;-64
2023/06/21 09:20:37;;;;;;;1.45;1.20;;;;;;;40.48;24.05;101691.34;5062363;28;20028;-64
2023/06/21 09:23:03;;;;;;;2.15;1.10;;;;;;;40.72;24.69;101703.00;5055848;28;20024;-65
2023/06/21 09:25:29;;;;;;;1.77;1.30;;;;;;;40.73;22.62;101708.28;5110184;28;20485;-64
2023/06/21 09:27:56;;;;;;;5.45;1.27;;;;;;;42.27;21.07;101703.13;5077816;28;20278;-64
2023/06/21 09:30:22;;;;;;;1.13;1.02;;;;;;;38.59;23.45;101707.69;5089067;28;20487;-65
2023/06/21 09:32:51;;;;;;;3.22;1.45;;;;;;;39.35;24.03;101703.22;5088050;28;20035;-64
2023/06/21 09:35:17;;;;;;;0.80;0.80;;;;;;;39.99;21.57;101698.28;5069596;28;20032;-66
2023/06/21 09:37:43;;;;;;;2.17;1.10;;;;;;;39.55;23.08;101702.69;5055851;28;20043;-63
2023/06/21 09:40:09;;;;;;;1.83;1.17;;;;;;;37.29;25.09;101709.59;5068037;28;20533;-63
2023/06/21 09:42:41;;;;;;;2.33;1.17;;;;;;;39.06;23.45;101711.31;5051031;28;20028;-66
2023/06/21 09:45:10;;;;;;;2.03;1.25;;;;;;;37.98;24.20;101706.41;5051400;28;20064;-65
2023/06/21 09:47:38;;;;;;;2.05;1.02;;;;;;;35.71;26.15;101709.19;5068687;28;20039;-65
2023/06/21 09:50:08;;;;;;;7.60;1.70;;;;;;;36.53;26.64;101711.47;5050263;28;20488;-65
2023/06/21 09:52:41;;;;;;;2.15;1.20;;;;;;;37.26;26.79;101715.38;5069785;28;20063;-65
2023/06/21 09:55:11;;;;;;;6.38;1.45;;;;;;;36.30;27.04;101720.25;5069881;28;20064;-64
2023/06/21 09:57:37;;;;;;;2.13;1.48;;;;;;;37.64;25.84;101721.13;5068339;28;20032;-65
2023/06/21 10:00:05;;;;;;;2.08;1.25;;;;;;;41.76;23.20;101720.75;5056984;28;20039;-65
2023/06/21 10:02:38;;;;;;;2.35;1.40;;;;;;;39.48;24.35;101735.38;5062447;28;20052;-65
2023/06/21 10:05:04;;;;;;;1.80;1.40;;;;;;;40.65;21.44;101731.16;5050597;28;20352;-64
2023/06/21 10:07:30;;;;;;;2.05;0.73;;;;;;;39.69;22.01;101726.50;5075937;28;20031;-64
2023/06/21 10:09:55;;;;;;;2.55;1.00;;;;;;;41.11;22.16;101738.19;5064182;28;20090;-65
2023/06/21 10:12:20;;;;;;;8.25;1.40;;;;;;;37.04;24.37;101730.50;5075675;28;20033;-65
2023/06/21 10:14:46;;;;;;;1.38;0.90;;;;;;;34.56;26.36;101738.84;5057796;28;20025;-65
2023/06/21 10:17:12;;;;;;;2.45;1.00;;;;;;;35.61;25.60;101735.63;5081083;28;20039;-65
2023/06/21 10:19:40;;;;;;;1.83;1.40;;;;;;;39.28;24.72;101735.06;5090083;28;20020;-65
2023/06/21 10:22:13;;;;;;;1.00;0.90;;;;;;;38.72;22.58;101737.16;5065159;28;20032;-65
2023/06/21 10:24:49;;;;;;;1.10;0.80;;;;;;;39.39;22.79;101738.38;5075038;28;20024;-65
2023/06/21 10:27:16;;;;;;;1.77;0.90;;;;;;;38.65;22.35;101740.59;5069980;28;20094;-65
2023/06/21 10:29:43;;;;;;;3.58;1.38;;;;;;;37.71;23.73;101736.81;5091086;28;20035;-65
2023/06/21 10:32:10;;;;;;;1.67;0.90;;;;;;;36.56;25.24;101738.41;5077957;28;20024;-65
2023/06/21 10:34:49;;;;;;;2.88;1.30;;;;;;;37.80;24.50;101736.66;5079482;28;20028;-65
2023/06/21 10:37:29;;;;;;;1.55;1.13;;;;;;;37.20;24.58;101742.44;5057965;28;20140;-65
2023/06/21 10:40:02;;;;;;;1.80;1.20;;;;;;;36.06;25.47;101745.44;5068100;28;20551;-65
2023/06/21 10:42:29;;;;;;;3.58;1.33;;;;;;;36.89;24.85;101743.94;5067750;28;20031;-65
2023/06/21 10:44:58;;;;;;;1.98;1.20;;;;;;;36.86;25.38;101746.97;5055875;28;20024;-65
2023/06/21 10:47:25;;;;;;;8.18;1.80;;;;;;;37.29;25.24;101744.16;5053391;28;20027;-66
2023/06/21 10:49:53;;;;;;;2.90;1.42;;;;;;;38.86;25.08;101755.53;5053948;28;20108;-65
2023/06/21 10:52:20;;;;;;;2.45;1.45;;;;;;;40.82;22.38;101748.19;5070905;28;20028;-66
2023/06/21 10:54:48;;;;;;;1.80;1.30;;;;;;;39.22;24.21;101754.94;5055253;28;20082;-64
2023/06/21 10:57:14;;;;;;;1.30;1.05;;;;;;;38.98;22.61;101762.25;5056264;28;20572;-66
2023/06/21 10:59:41;;;;;;;3.08;1.33;;;;;;;38.44;22.19;101760.31;5058968;28;20020;-65
2023/06/21 11:02:07;;;;;;;1.60;1.40;;;;;;;38.04;23.77;101764.03;5092206;28;20486;-65
2023/06/21 11:05:31;;;;;;;2.97;1.20;;;;;;;36.73;24.34;101773.84;5074203;28;20056;-65
2023/06/21 11:08:05;;;;;;;3.78;1.63;;;;;;;37.28;24.55;101772.41;4987768;28;20038;-66
2023/06/21 11:10:38;;;;;;;2.38;1.70;;;;;;;38.69;24.05;101780.19;4988977;28;20039;-66
2023/06/21 11:13:03;;;;;;;1.73;1.20;;;;;;;38.13;24.58;101779.38;5042437;28;20129;-65
2023/06/21 11:15:31;;;;;;;2.60;1.48;;;;;;;38.33;23.82;101785.28;5073147;28;20531;-65
2023/06/21 11:18:01;;;;;;;4.90;1.40;;;;;;;37.06;25.62;101787.56;5073547;28;20115;-65
2023/06/21 11:20:27;;;;;;;5.72;1.20;;;;;;;38.97;23.79;101787.88;5060157;28;20028;-65